Wetterdaten: Montag, 04.05.2015
Datum Zeit Auen-Temp. Temp gefhlt Luftfeuchte Luftdruck Regen Wind Richtung Richtung Taupunkt Windben
04.05.2015 00:01 12,3 C 12,2 C 85 % 1010,4 hPa 0,0 mm 0,0 km/h (0 Bft) N-NO 22 9,9 C 0,0 km/h (0 Bft)
04.05.2015 00:06 12,3 C 12,2 C 85 % 1010,4 hPa 0,0 mm 0,0 km/h (0 Bft) W 270 9,9 C 2,6 km/h (1 Bft)
04.05.2015 00:11 12,3 C 12,2 C 86 % 1010,4 hPa 0,0 mm 0,0 km/h (0 Bft) W-SW 247 10,0 C 0,0 km/h (0 Bft)
04.05.2015 00:16 12,2 C 12,2 C 86 % 1010,4 hPa 0,0 mm 0,0 km/h (0 Bft) O-NO 67 9,9 C 0,0 km/h (0 Bft)
04.05.2015 00:21 12,2 C 12,1 C 86 % 1010,4 hPa 0,0 mm 0,0 km/h (0 Bft) O 90 9,9 C 0,0 km/h (0 Bft)
04.05.2015 00:26 12,2 C 12,1 C 86 % 1010,4 hPa 0,0 mm 0,0 km/h (0 Bft) W-NW 292 9,9 C 0,0 km/h (0 Bft)
04.05.2015 00:31 12,3 C 12,2 C 86 % 1010,4 hPa 0,0 mm 0,0 km/h (0 Bft) W-SW 247 10,0 C 0,0 km/h (0 Bft)
04.05.2015 00:36 12,3 C 12,2 C 86 % 1010,2 hPa 0,0 mm 0,0 km/h (0 Bft) S-SO 157 10,0 C 0,0 km/h (0 Bft)
04.05.2015 00:41 12,2 C 12,1 C 86 % 1010,2 hPa 0,0 mm 0,0 km/h (0 Bft) NO 45 9,9 C 0,0 km/h (0 Bft)
04.05.2015 00:46 12,2 C 12,1 C 86 % 1010,2 hPa 0,0 mm 0,0 km/h (0 Bft) NO 45 9,9 C 0,0 km/h (0 Bft)
04.05.2015 00:51 12,2 C 12,1 C 86 % 1010,2 hPa 0,0 mm 0,0 km/h (0 Bft) NO 45 9,9 C 0,0 km/h (0 Bft)
04.05.2015 00:56 12,2 C 12,1 C 86 % 1010,3 hPa 0,0 mm 0,0 km/h (0 Bft) W-NW 292 9,9 C 0,0 km/h (0 Bft)
04.05.2015 01:01 12,1 C 12,0 C 86 % 1010,3 hPa 0,0 mm 0,0 km/h (0 Bft) W 270 9,8 C 3,1 km/h (1 Bft)
04.05.2015 01:06 12,2 C 12,1 C 87 % 1010,3 hPa 0,0 mm 1,3 km/h (1 Bft) SW 225 10,1 C 7,5 km/h (2 Bft)
04.05.2015 01:11 12,3 C 12,1 C 87 % 1010,3 hPa 0,0 mm 2,6 km/h (1 Bft) S 180 10,2 C 5,7 km/h (1 Bft)
04.05.2015 01:16 12,5 C 12,3 C 87 % 1010,9 hPa 0,0 mm 4,9 km/h (1 Bft) W 270 10,4 C 7,8 km/h (2 Bft)
04.05.2015 01:21 12,7 C 12,4 C 86 % 1010,9 hPa 0,7 mm 5,2 km/h (1 Bft) W-SW 247 10,4 C 4,1 km/h (1 Bft)
04.05.2015 01:26 12,7 C 12,4 C 86 % 1010,9 hPa 0,0 mm 4,9 km/h (1 Bft) NW 315 10,4 C 10,6 km/h (2 Bft)
04.05.2015 01:31 12,6 C 12,3 C 86 % 1010,9 hPa 0,0 mm 5,2 km/h (1 Bft) W 270 10,3 C 6,5 km/h (2 Bft)
04.05.2015 01:36 12,5 C 12,3 C 86 % 1011,4 hPa 0,0 mm 5,2 km/h (1 Bft) NW 315 10,2 C 0,0 km/h (0 Bft)
04.05.2015 01:41 12,3 C 12,1 C 86 % 1011,4 hPa 0,0 mm 3,6 km/h (1 Bft) W 270 10,0 C 0,0 km/h (0 Bft)
04.05.2015 01:46 12,4 C 12,2 C 86 % 1011,4 hPa 0,0 mm 3,6 km/h (1 Bft) W-NW 292 10,1 C 9,3 km/h (2 Bft)
04.05.2015 01:51 12,3 C 12,1 C 86 % 1011,4 hPa 0,7 mm 3,4 km/h (1 Bft) SW 225 10,0 C 6,2 km/h (2 Bft)
04.05.2015 01:56 12,4 C 12,2 C 87 % 1011,6 hPa 0,0 mm 3,6 km/h (1 Bft) SW 225 10,3 C 12,2 km/h (2 Bft)
04.05.2015 02:01 12,4 C 12,2 C 87 % 1011,6 hPa 0,0 mm 5,7 km/h (1 Bft) W-SW 247 10,3 C 6,2 km/h (2 Bft)
04.05.2015 02:06 12,4 C 12,2 C 87 % 1011,6 hPa 0,0 mm 5,7 km/h (1 Bft) W 270 10,3 C 10,9 km/h (2 Bft)
04.05.2015 02:11 12,3 C 12,1 C 87 % 1011,6 hPa 0,0 mm 3,9 km/h (1 Bft) W-NW 292 10,2 C 3,9 km/h (1 Bft)
04.05.2015 02:16 12,2 C 12,1 C 87 % 1011,8 hPa 0,7 mm 2,8 km/h (1 Bft) W-SW 247 10,1 C 8,5 km/h (2 Bft)
04.05.2015 02:21 12,3 C 12,2 C 87 % 1011,8 hPa 0,0 mm 3,9 km/h (1 Bft) SW 225 10,2 C 10,9 km/h (2 Bft)
04.05.2015 02:26 12,3 C 12,2 C 88 % 1011,8 hPa 0,0 mm 4,7 km/h (1 Bft) W 270 10,4 C 4,9 km/h (1 Bft)
04.05.2015 02:31 12,3 C 12,2 C 88 % 1011,8 hPa 0,0 mm 3,6 km/h (1 Bft) W 270 10,4 C 0,0 km/h (0 Bft)
04.05.2015 02:36 12,3 C 12,2 C 88 % 1011,9 hPa 0,0 mm 3,1 km/h (1 Bft) SW 225 10,4 C 6,7 km/h (2 Bft)
04.05.2015 02:41 12,3 C 12,2 C 88 % 1011,9 hPa 0,0 mm 3,4 km/h (1 Bft) W 270 10,4 C 4,4 km/h (1 Bft)
04.05.2015 02:46 12,3 C 12,2 C 88 % 1011,9 hPa 0,0 mm 3,4 km/h (1 Bft) W-SW 247 10,4 C 7,0 km/h (2 Bft)
04.05.2015 02:51 12,2 C 12,1 C 88 % 1011,9 hPa 0,0 mm 3,6 km/h (1 Bft) W 270 10,3 C 3,1 km/h (1 Bft)
04.05.2015 02:56 12,2 C 12,1 C 88 % 1011,7 hPa 0,7 mm 3,1 km/h (1 Bft) W-SW 247 10,3 C 4,1 km/h (1 Bft)
04.05.2015 03:01 12,3 C 12,2 C 88 % 1011,7 hPa 0,0 mm 3,1 km/h (1 Bft) W-NW 292 10,4 C 4,1 km/h (1 Bft)
04.05.2015 03:11 12,5 C 12,3 C 88 % 1011,7 hPa 0,0 mm 5,7 km/h (1 Bft) S-SW 202 10,6 C 9,3 km/h (2 Bft)
04.05.2015 03:16 12,6 C 12,4 C 88 % 1011,6 hPa 0,0 mm 7,0 km/h (2 Bft) SW 225 10,7 C 8,0 km/h (2 Bft)
04.05.2015 03:21 12,6 C 12,4 C 88 % 1011,6 hPa 0,0 mm 6,5 km/h (2 Bft) S 180 10,7 C 6,5 km/h (2 Bft)
04.05.2015 03:26 12,6 C 12,4 C 88 % 1011,6 hPa 0,0 mm 6,2 km/h (2 Bft) W-NW 292 10,7 C 3,1 km/h (1 Bft)
04.05.2015 03:31 12,6 C 12,4 C 88 % 1011,6 hPa 0,0 mm 5,4 km/h (1 Bft) W-SW 247 10,7 C 4,9 km/h (1 Bft)
04.05.2015 03:38 12,5 C 12,3 C 88 % 1011,6 hPa 0,0 mm 4,7 km/h (1 Bft) SW 225 10,6 C 8,3 km/h (2 Bft)
04.05.2015 03:40 12,5 C 12,3 C 88 % 1011,6 hPa 0,0 mm 4,7 km/h (1 Bft) SW 225 10,6 C 8,3 km/h (2 Bft)
04.05.2015 03:45 12,6 C 12,4 C 88 % 1011,6 hPa 0,0 mm 4,9 km/h (1 Bft) S 180 10,7 C 8,3 km/h (2 Bft)
04.05.2015 03:50 12,6 C 12,4 C 88 % 1011,6 hPa 0,0 mm 5,4 km/h (1 Bft) W 270 10,7 C 8,3 km/h (2 Bft)
04.05.2015 03:55 12,6 C 12,4 C 88 % 1011,6 hPa 0,0 mm 5,4 km/h (1 Bft) S-SW 202 10,7 C 4,1 km/h (1 Bft)
04.05.2015 04:00 12,6 C 12,4 C 87 % 1011,7 hPa 0,7 mm 4,1 km/h (1 Bft) W-SW 247 10,5 C 2,6 km/h (1 Bft)
04.05.2015 04:05 12,6 C 12,4 C 87 % 1011,7 hPa 0,0 mm 3,6 km/h (1 Bft) SW 225 10,5 C 5,2 km/h (1 Bft)
04.05.2015 04:10 12,6 C 12,4 C 87 % 1011,7 hPa 0,0 mm 4,1 km/h (1 Bft) W-SW 247 10,5 C 6,0 km/h (2 Bft)
04.05.2015 04:15 12,6 C 12,4 C 87 % 1011,7 hPa 0,0 mm 4,4 km/h (1 Bft) W-SW 247 10,5 C 5,7 km/h (1 Bft)
04.05.2015 04:20 12,7 C 12,4 C 87 % 1012,0 hPa 0,0 mm 4,4 km/h (1 Bft) W-SW 247 10,6 C 10,6 km/h (2 Bft)
04.05.2015 04:25 12,8 C 12,5 C 87 % 1012,0 hPa 0,0 mm 5,4 km/h (1 Bft) SW 225 10,7 C 9,8 km/h (2 Bft)
04.05.2015 04:30 12,7 C 12,4 C 87 % 1012,0 hPa 0,0 mm 6,2 km/h (2 Bft) SW 225 10,6 C 7,0 km/h (2 Bft)
04.05.2015 04:35 12,6 C 12,4 C 87 % 1012,0 hPa 0,0 mm 6,5 km/h (2 Bft) SW 225 10,5 C 7,8 km/h (2 Bft)
04.05.2015 04:36 12,6 C 12,4 C 87 % 1011,9 hPa 0,0 mm 4,9 km/h (1 Bft) W-SW 247 10,5 C 3,9 km/h (1 Bft)
04.05.2015 04:41 12,5 C 12,3 C 87 % 1011,9 hPa 0,0 mm 4,9 km/h (1 Bft) SW 225 10,4 C 13,5 km/h (3 Bft)
04.05.2015 04:46 12,6 C 12,4 C 87 % 1011,9 hPa 0,7 mm 6,2 km/h (2 Bft) W-SW 247 10,5 C 6,7 km/h (2 Bft)
04.05.2015 04:51 12,5 C 12,2 C 87 % 1011,9 hPa 0,0 mm 8,3 km/h (2 Bft) W 270 10,4 C 15,3 km/h (3 Bft)
04.05.2015 04:56 12,5 C 12,3 C 87 % 1012,2 hPa 0,0 mm 7,8 km/h (2 Bft) W-SW 247 10,4 C 10,6 km/h (2 Bft)
04.05.2015 05:01 12,4 C 12,2 C 87 % 1012,2 hPa 0,0 mm 8,0 km/h (2 Bft) SW 225 10,3 C 13,7 km/h (3 Bft)
04.05.2015 05:06 12,4 C 12,2 C 87 % 1012,2 hPa 0,7 mm 8,3 km/h (2 Bft) W-SW 247 10,3 C 12,4 km/h (3 Bft)
04.05.2015 05:11 12,4 C 12,2 C 87 % 1012,2 hPa 0,0 mm 8,3 km/h (2 Bft) W-SW 247 10,3 C 12,4 km/h (3 Bft)
04.05.2015 05:16 12,3 C 12,1 C 87 % 1012,0 hPa 0,0 mm 8,3 km/h (2 Bft) W-SW 247 10,2 C 12,4 km/h (3 Bft)
04.05.2015 05:21 12,3 C 12,1 C 87 % 1012,0 hPa 0,0 mm 0,0 km/h (0 Bft) W-SW 247 10,2 C 0,0 km/h (0 Bft)
04.05.2015 05:26 12,3 C 12,1 C 87 % 1012,0 hPa 0,0 mm 0,0 km/h (0 Bft) W-SW 247 10,2 C 0,0 km/h (0 Bft)
04.05.2015 05:31 12,4 C 12,2 C 87 % 1012,0 hPa 0,0 mm 0,0 km/h (0 Bft) W-SW 247 10,3 C 0,0 km/h (0 Bft)
04.05.2015 05:36 12,4 C 12,2 C 87 % 1011,8 hPa 0,0 mm 0,0 km/h (0 Bft) W-SW 247 10,3 C 0,0 km/h (0 Bft)
04.05.2015 05:41 12,1 C 12,0 C 87 % 1011,8 hPa 0,0 mm 0,0 km/h (0 Bft) W-SW 247 10,0 C 0,0 km/h (0 Bft)
04.05.2015 05:46 11,9 C 11,8 C 88 % 1011,8 hPa 0,0 mm 0,0 km/h (0 Bft) W-SW 247 10,0 C 0,0 km/h (0 Bft)
04.05.2015 05:51 11,7 C 11,7 C 88 % 1011,8 hPa 0,0 mm 0,0 km/h (0 Bft) W-SW 247 9,8 C 0,0 km/h (0 Bft)
04.05.2015 05:56 11,7 C 11,7 C 88 % 1011,9 hPa 0,0 mm 0,0 km/h (0 Bft) W-SW 247 9,8 C 0,0 km/h (0 Bft)
04.05.2015 06:01 11,7 C 11,7 C 88 % 1011,9 hPa 0,0 mm 0,0 km/h (0 Bft) W-SW 247 9,8 C 0,0 km/h (0 Bft)
04.05.2015 06:06 11,7 C 11,7 C 88 % 1011,9 hPa 0,0 mm 0,0 km/h (0 Bft) W-SW 247 9,8 C 0,0 km/h (0 Bft)
04.05.2015 06:11 11,7 C 11,7 C 89 % 1011,9 hPa 0,0 mm 0,0 km/h (0 Bft) W-SW 247 9,9 C 0,0 km/h (0 Bft)
04.05.2015 06:16 11,6 C 11,7 C 89 % 1011,9 hPa 0,0 mm 0,0 km/h (0 Bft) W-SW 247 9,8 C 0,0 km/h (0 Bft)
04.05.2015 06:21 11,8 C 11,8 C 89 % 1011,9 hPa 0,0 mm 0,0 km/h (0 Bft) W-SW 247 10,0 C 0,0 km/h (0 Bft)
04.05.2015 06:26 11,9 C 11,8 C 89 % 1011,9 hPa 0,0 mm 0,0 km/h (0 Bft) W-SW 247 10,1 C 0,0 km/h (0 Bft)
04.05.2015 06:31 11,9 C 11,8 C 89 % 1011,9 hPa 0,0 mm 0,0 km/h (0 Bft) W-SW 247 10,1 C 0,0 km/h (0 Bft)
04.05.2015 06:36 11,9 C 11,8 C 89 % 1012,2 hPa 0,0 mm 0,0 km/h (0 Bft) W-SW 247 10,1 C 0,0 km/h (0 Bft)
04.05.2015 06:41 11,9 C 11,8 C 89 % 1012,2 hPa 0,0 mm 0,0 km/h (0 Bft) W-SW 247 10,1 C 0,0 km/h (0 Bft)
04.05.2015 06:46 11,9 C 11,8 C 89 % 1012,2 hPa 0,0 mm 0,0 km/h (0 Bft) W-SW 247 10,1 C 0,0 km/h (0 Bft)
04.05.2015 06:51 12,0 C 11,9 C 89 % 1012,2 hPa 0,0 mm 0,0 km/h (0 Bft) W-SW 247 10,2 C 0,0 km/h (0 Bft)
04.05.2015 06:56 12,0 C 11,9 C 89 % 1012,3 hPa 0,0 mm 0,0 km/h (0 Bft) W-SW 247 10,2 C 0,0 km/h (0 Bft)
04.05.2015 07:01 12,0 C 11,9 C 89 % 1012,3 hPa 0,0 mm 0,0 km/h (0 Bft) W-SW 247 10,2 C 0,0 km/h (0 Bft)
04.05.2015 07:06 12,0 C 11,9 C 89 % 1012,3 hPa 0,0 mm 0,0 km/h (0 Bft) W-SW 247 10,2 C 0,0 km/h (0 Bft)
04.05.2015 07:11 12,1 C 12,0 C 89 % 1012,3 hPa 0,0 mm 0,0 km/h (0 Bft) W-SW 247 10,3 C 0,0 km/h (0 Bft)
04.05.2015 07:16 12,1 C 12,0 C 89 % 1012,4 hPa 0,0 mm 0,0 km/h (0 Bft) W-SW 247 10,3 C 0,0 km/h (0 Bft)
04.05.2015 07:21 12,1 C 12,0 C 89 % 1012,4 hPa 0,0 mm 0,0 km/h (0 Bft) W-SW 247 10,3 C 0,0 km/h (0 Bft)
04.05.2015 07:26 12,1 C 12,0 C 89 % 1012,4 hPa 0,0 mm 0,0 km/h (0 Bft) W-SW 247 10,3 C 0,0 km/h (0 Bft)
04.05.2015 07:31 12,1 C 12,0 C 89 % 1012,4 hPa 0,0 mm 0,0 km/h (0 Bft) W-SW 247 10,3 C 0,0 km/h (0 Bft)
04.05.2015 07:36 12,2 C 12,0 C 89 % 1012,4 hPa 0,0 mm 0,0 km/h (0 Bft) W-SW 247 10,4 C 0,0 km/h (0 Bft)
04.05.2015 07:41 12,2 C 12,1 C 86 % 1012,4 hPa 0,0 mm 0,0 km/h (0 Bft) W-SW 247 9,9 C 0,0 km/h (0 Bft)
04.05.2015 07:46 12,3 C 12,2 C 86 % 1012,4 hPa 0,0 mm 0,0 km/h (0 Bft) W-SW 247 10,0 C 0,0 km/h (0 Bft)
04.05.2015 07:51 12,4 C 12,2 C 90 % 1012,4 hPa 0,0 mm 0,0 km/h (0 Bft) W-SW 247 10,8 C 0,0 km/h (0 Bft)
04.05.2015 07:56 12,4 C 12,2 C 90 % 1012,4 hPa 0,0 mm 0,0 km/h (0 Bft) W-SW 247 10,8 C 0,0 km/h (0 Bft)
04.05.2015 08:01 12,4 C 12,2 C 90 % 1012,4 hPa 0,0 mm 0,0 km/h (0 Bft) W-SW 247 10,8 C 0,0 km/h (0 Bft)
04.05.2015 08:06 12,4 C 12,2 C 87 % 1012,4 hPa 0,0 mm 0,0 km/h (0 Bft) W-SW 247 10,3 C 0,0 km/h (0 Bft)
04.05.2015 08:11 12,5 C 12,3 C 87 % 1012,4 hPa 0,0 mm 0,0 km/h (0 Bft) W-SW 247 10,4 C 0,0 km/h (0 Bft)
04.05.2015 08:16 12,6 C 12,4 C 87 % 1012,3 hPa 0,0 mm 0,0 km/h (0 Bft) W-SW 247 10,5 C 0,0 km/h (0 Bft)
04.05.2015 08:21 12,7 C 12,4 C 87 % 1012,3 hPa 0,0 mm 0,0 km/h (0 Bft) W-SW 247 10,6 C 0,0 km/h (0 Bft)
04.05.2015 08:26 12,8 C 12,5 C 87 % 1012,3 hPa 0,0 mm 0,0 km/h (0 Bft) W-SW 247 10,7 C 0,0 km/h (0 Bft)
04.05.2015 08:31 12,9 C 12,6 C 87 % 1012,3 hPa 0,0 mm 0,0 km/h (0 Bft) W-SW 247 10,8 C 0,0 km/h (0 Bft)
04.05.2015 08:36 13,0 C 12,8 C 86 % 1012,5 hPa 0,0 mm 0,0 km/h (0 Bft) W-SW 247 10,7 C 0,0 km/h (0 Bft)
04.05.2015 08:41 13,4 C 13,2 C 86 % 1012,5 hPa 0,0 mm 0,0 km/h (0 Bft) W-SW 247 11,1 C 0,0 km/h (0 Bft)
04.05.2015 08:46 14,0 C 13,8 C 86 % 1012,5 hPa 0,0 mm 0,0 km/h (0 Bft) W-SW 247 11,7 C 0,0 km/h (0 Bft)
04.05.2015 08:51 14,8 C 14,4 C 86 % 1012,5 hPa 0,0 mm 0,0 km/h (0 Bft) W-SW 247 12,5 C 0,0 km/h (0 Bft)
04.05.2015 08:56 15,1 C 14,3 C 86 % 1012,5 hPa 0,0 mm 0,0 km/h (0 Bft) W-SW 247 12,8 C 0,0 km/h (0 Bft)
04.05.2015 09:01 15,2 C 14,2 C 85 % 1012,5 hPa 0,0 mm 0,0 km/h (0 Bft) W-SW 247 12,7 C 0,0 km/h (0 Bft)
04.05.2015 09:06 15,3 C 14,5 C 85 % 1012,5 hPa 0,0 mm 0,0 km/h (0 Bft) W-SW 247 12,8 C 0,0 km/h (0 Bft)
04.05.2015 09:11 15,5 C 14,6 C 85 % 1012,5 hPa 0,0 mm 0,0 km/h (0 Bft) W-SW 247 13,0 C 0,0 km/h (0 Bft)
04.05.2015 09:16 15,8 C 14,9 C 85 % 1012,4 hPa 0,0 mm 0,0 km/h (0 Bft) W-SW 247 13,3 C 0,0 km/h (0 Bft)
04.05.2015 09:21 15,8 C 14,7 C 84 % 1012,4 hPa 0,0 mm 0,0 km/h (0 Bft) W-SW 247 13,1 C 0,0 km/h (0 Bft)
04.05.2015 09:26 15,8 C 14,6 C 84 % 1012,4 hPa 0,0 mm 0,0 km/h (0 Bft) W-SW 247 13,1 C 0,0 km/h (0 Bft)
04.05.2015 09:31 15,9 C 14,9 C 83 % 1012,4 hPa 0,0 mm 0,0 km/h (0 Bft) W-SW 247 13,0 C 0,0 km/h (0 Bft)
04.05.2015 09:36 16,0 C 15,0 C 82 % 1013,2 hPa 0,0 mm 0,0 km/h (0 Bft) W-SW 247 12,9 C 0,0 km/h (0 Bft)
04.05.2015 09:41 15,9 C 14,8 C 82 % 1013,2 hPa 0,0 mm 0,0 km/h (0 Bft) W-SW 247 12,8 C 0,0 km/h (0 Bft)
04.05.2015 09:46 16,1 C 15,1 C 81 % 1013,2 hPa 0,0 mm 0,0 km/h (0 Bft) W-SW 247 12,8 C 0,0 km/h (0 Bft)
04.05.2015 09:51 16,3 C 15,2 C 81 % 1013,2 hPa 0,0 mm 0,0 km/h (0 Bft) W-SW 247 13,0 C 0,0 km/h (0 Bft)
04.05.2015 09:56 16,6 C 15,7 C 80 % 1012,9 hPa 0,0 mm 0,0 km/h (0 Bft) W-SW 247 13,1 C 0,0 km/h (0 Bft)
04.05.2015 10:01 17,5 C 16,9 C 80 % 1012,9 hPa 0,0 mm 0,0 km/h (0 Bft) W-SW 247 14,0 C 0,0 km/h (0 Bft)
04.05.2015 10:06 17,7 C 17,1 C 79 % 1012,9 hPa 0,0 mm 0,0 km/h (0 Bft) W-SW 247 14,0 C 0,0 km/h (0 Bft)
04.05.2015 10:11 18,0 C 17,2 C 79 % 1012,9 hPa 0,0 mm 0,0 km/h (0 Bft) W-SW 247 14,3 C 0,0 km/h (0 Bft)
04.05.2015 10:16 18,3 C 17,1 C 78 % 1012,8 hPa 0,0 mm 0,0 km/h (0 Bft) W-SW 247 14,4 C 0,0 km/h (0 Bft)
04.05.2015 10:21 18,2 C 17,4 C 77 % 1012,8 hPa 0,0 mm 0,0 km/h (0 Bft) W-SW 247 14,1 C 0,0 km/h (0 Bft)
04.05.2015 10:26 18,3 C 17,6 C 77 % 1012,8 hPa 0,0 mm 0,0 km/h (0 Bft) W-SW 247 14,2 C 0,0 km/h (0 Bft)
04.05.2015 10:31 18,9 C 17,7 C 77 % 1012,8 hPa 0,0 mm 0,0 km/h (0 Bft) W-SW 247 14,8 C 0,0 km/h (0 Bft)
04.05.2015 10:36 18,7 C 17,4 C 76 % 1013,1 hPa 0,0 mm 0,0 km/h (0 Bft) W-SW 247 14,4 C 0,0 km/h (0 Bft)
04.05.2015 10:41 18,8 C 17,4 C 76 % 1013,1 hPa 0,0 mm 0,0 km/h (0 Bft) W-SW 247 14,5 C 0,0 km/h (0 Bft)
04.05.2015 10:46 18,5 C 17,4 C 75 % 1013,1 hPa 0,0 mm 0,0 km/h (0 Bft) W-SW 247 14,0 C 0,0 km/h (0 Bft)
04.05.2015 10:51 19,0 C 17,6 C 74 % 1013,1 hPa 0,0 mm 0,0 km/h (0 Bft) W-SW 247 14,3 C 0,0 km/h (0 Bft)
04.05.2015 10:56 18,9 C 17,5 C 74 % 1013,9 hPa 0,0 mm 0,0 km/h (0 Bft) W-SW 247 14,2 C 0,0 km/h (0 Bft)
04.05.2015 11:01 18,6 C 17,2 C 74 % 1013,9 hPa 0,0 mm 0,0 km/h (0 Bft) W-SW 247 13,9 C 0,0 km/h (0 Bft)
04.05.2015 11:06 18,6 C 17,0 C 72 % 1013,9 hPa 0,0 mm 0,0 km/h (0 Bft) W-SW 247 13,4 C 0,0 km/h (0 Bft)
04.05.2015 11:11 18,5 C 17,0 C 72 % 1013,9 hPa 0,0 mm 0,0 km/h (0 Bft) W-SW 247 13,4 C 0,0 km/h (0 Bft)
04.05.2015 11:16 18,4 C 17,0 C 71 % 1013,6 hPa 0,0 mm 0,0 km/h (0 Bft) W-SW 247 13,0 C 0,0 km/h (0 Bft)
04.05.2015 11:21 18,6 C 17,2 C 71 % 1013,6 hPa 0,0 mm 0,0 km/h (0 Bft) W-SW 247 13,2 C 0,0 km/h (0 Bft)
04.05.2015 11:26 18,7 C 17,2 C 71 % 1013,6 hPa 0,0 mm 0,0 km/h (0 Bft) W-SW 247 13,3 C 0,0 km/h (0 Bft)
04.05.2015 11:31 18,6 C 17,0 C 71 % 1013,6 hPa 0,0 mm 0,0 km/h (0 Bft) W-SW 247 13,2 C 0,0 km/h (0 Bft)
04.05.2015 11:36 18,5 C 16,9 C 71 % 1013,2 hPa 0,0 mm 0,0 km/h (0 Bft) W-SW 247 13,1 C 0,0 km/h (0 Bft)
04.05.2015 11:41 18,6 C 17,2 C 71 % 1013,2 hPa 0,0 mm 0,0 km/h (0 Bft) W-SW 247 13,2 C 0,0 km/h (0 Bft)
04.05.2015 11:46 18,7 C 17,1 C 70 % 1013,2 hPa 0,0 mm 0,0 km/h (0 Bft) W-SW 247 13,1 C 0,0 km/h (0 Bft)
04.05.2015 11:51 18,6 C 17,0 C 70 % 1013,2 hPa 0,0 mm 0,0 km/h (0 Bft) W-SW 247 13,0 C 0,0 km/h (0 Bft)
04.05.2015 11:56 18,7 C 17,2 C 70 % 1013,2 hPa 0,0 mm 0,0 km/h (0 Bft) W-SW 247 13,1 C 0,0 km/h (0 Bft)
04.05.2015 12:01 18,8 C 17,2 C 70 % 1013,2 hPa 0,0 mm 0,0 km/h (0 Bft) W-SW 247 13,2 C 0,0 km/h (0 Bft)
04.05.2015 12:06 18,7 C 17,2 C 69 % 1013,2 hPa 0,0 mm 0,0 km/h (0 Bft) W-SW 247 12,9 C 0,0 km/h (0 Bft)
04.05.2015 12:11 19,1 C 17,4 C 69 % 1013,2 hPa 0,0 mm 0,0 km/h (0 Bft) W-SW 247 13,3 C 0,0 km/h (0 Bft)
04.05.2015 12:16 19,5 C 18,2 C 69 % 1013,1 hPa 0,0 mm 0,0 km/h (0 Bft) W-SW 247 13,7 C 0,0 km/h (0 Bft)
04.05.2015 12:21 19,4 C 18,0 C 68 % 1013,1 hPa 0,0 mm 0,0 km/h (0 Bft) W-SW 247 13,3 C 0,0 km/h (0 Bft)
04.05.2015 12:26 19,7 C 18,3 C 68 % 1013,1 hPa 0,0 mm 0,0 km/h (0 Bft) W-SW 247 13,6 C 0,0 km/h (0 Bft)
04.05.2015 12:31 19,8 C 18,3 C 68 % 1013,1 hPa 0,0 mm 0,0 km/h (0 Bft) W-SW 247 13,7 C 0,0 km/h (0 Bft)
04.05.2015 12:36 20,0 C 18,2 C 67 % 1013,1 hPa 0,0 mm 0,0 km/h (0 Bft) W-SW 247 13,7 C 0,0 km/h (0 Bft)
04.05.2015 12:41 19,8 C 18,0 C 67 % 1013,1 hPa 0,0 mm 0,0 km/h (0 Bft) W-SW 247 13,5 C 0,0 km/h (0 Bft)
04.05.2015 12:46 19,8 C 18,0 C 67 % 1013,1 hPa 0,0 mm 0,0 km/h (0 Bft) W-SW 247 13,5 C 0,0 km/h (0 Bft)
04.05.2015 12:51 19,5 C 17,2 C 66 % 1013,1 hPa 0,0 mm 0,0 km/h (0 Bft) W-SW 247 13,0 C 0,0 km/h (0 Bft)
04.05.2015 12:56 19,4 C 17,6 C 67 % 1012,9 hPa 0,0 mm 0,0 km/h (0 Bft) W-SW 247 13,1 C 0,0 km/h (0 Bft)
04.05.2015 13:01 19,5 C 17,4 C 67 % 1012,9 hPa 0,0 mm 0,0 km/h (0 Bft) W-SW 247 13,2 C 0,0 km/h (0 Bft)
04.05.2015 13:06 19,5 C 17,3 C 67 % 1012,9 hPa 0,0 mm 0,0 km/h (0 Bft) W-SW 247 13,2 C 0,0 km/h (0 Bft)
04.05.2015 13:11 19,4 C 17,2 C 67 % 1012,9 hPa 0,0 mm 0,0 km/h (0 Bft) W-SW 247 13,1 C 0,0 km/h (0 Bft)
04.05.2015 13:16 19,5 C 17,5 C 68 % 1012,9 hPa 0,0 mm 0,0 km/h (0 Bft) W-SW 247 13,4 C 0,0 km/h (0 Bft)
04.05.2015 13:21 19,4 C 17,2 C 67 % 1012,9 hPa 0,0 mm 0,0 km/h (0 Bft) W-SW 247 13,1 C 0,0 km/h (0 Bft)
04.05.2015 13:26 19,5 C 17,4 C 67 % 1012,9 hPa 0,0 mm 0,0 km/h (0 Bft) W-SW 247 13,2 C 0,0 km/h (0 Bft)
04.05.2015 13:31 19,5 C 17,3 C 68 % 1012,9 hPa 0,0 mm 0,0 km/h (0 Bft) W-SW 247 13,4 C 0,0 km/h (0 Bft)
04.05.2015 13:36 19,5 C 17,3 C 68 % 1012,8 hPa 0,0 mm 0,0 km/h (0 Bft) W-SW 247 13,4 C 0,0 km/h (0 Bft)
04.05.2015 13:41 19,3 C 17,0 C 68 % 1012,8 hPa 0,0 mm 0,0 km/h (0 Bft) W-SW 247 13,2 C 0,0 km/h (0 Bft)
04.05.2015 13:46 19,1 C 16,7 C 69 % 1012,8 hPa 0,0 mm 0,0 km/h (0 Bft) W-SW 247 13,3 C 0,0 km/h (0 Bft)
04.05.2015 13:51 18,7 C 16,4 C 70 % 1012,8 hPa 0,0 mm 0,0 km/h (0 Bft) W-SW 247 13,1 C 0,0 km/h (0 Bft)
04.05.2015 13:56 18,4 C 16,2 C 70 % 1012,9 hPa 0,0 mm 0,0 km/h (0 Bft) W-SW 247 12,8 C 0,0 km/h (0 Bft)
04.05.2015 14:01 18,3 C 16,2 C 71 % 1012,9 hPa 0,0 mm 0,0 km/h (0 Bft) W-SW 247 12,9 C 0,0 km/h (0 Bft)
04.05.2015 14:06 18,3 C 16,3 C 71 % 1012,9 hPa 0,0 mm 0,0 km/h (0 Bft) W-SW 247 12,9 C 0,0 km/h (0 Bft)
04.05.2015 14:11 18,3 C 16,2 C 71 % 1012,9 hPa 0,0 mm 0,0 km/h (0 Bft) W-SW 247 12,9 C 0,0 km/h (0 Bft)
04.05.2015 14:16 18,2 C 16,1 C 71 % 1012,9 hPa 0,0 mm 0,0 km/h (0 Bft) W-SW 247 12,9 C 0,0 km/h (0 Bft)
04.05.2015 14:21 18,3 C 16,4 C 71 % 1012,9 hPa 0,0 mm 0,0 km/h (0 Bft) W-SW 247 12,9 C 0,0 km/h (0 Bft)
04.05.2015 14:26 18,4 C 16,4 C 71 % 1012,9 hPa 0,0 mm 0,0 km/h (0 Bft) W-SW 247 13,0 C 0,0 km/h (0 Bft)
04.05.2015 14:31 18,3 C 16,1 C 72 % 1012,9 hPa 0,0 mm 0,0 km/h (0 Bft) W-SW 247 13,2 C 0,0 km/h (0 Bft)
04.05.2015 14:36 18,2 C 16,1 C 73 % 1013,0 hPa 0,0 mm 0,0 km/h (0 Bft) W-SW 247 13,3 C 0,0 km/h (0 Bft)
04.05.2015 14:41 17,9 C 15,8 C 73 % 1013,0 hPa 0,0 mm 0,0 km/h (0 Bft) W-SW 247 13,0 C 0,0 km/h (0 Bft)
04.05.2015 14:46 17,9 C 15,8 C 73 % 1013,0 hPa 0,0 mm 0,0 km/h (0 Bft) W-SW 247 13,0 C 0,0 km/h (0 Bft)
04.05.2015 14:50 17,8 C 15,8 C 74 % 1013,0 hPa 0,0 mm 0,0 km/h (0 Bft) W-SW 247 13,1 C 0,0 km/h (0 Bft)
04.05.2015 14:55 17,6 C 15,6 C 75 % 1013,0 hPa 0,0 mm 0,0 km/h (0 Bft) W-SW 247 13,1 C 0,0 km/h (0 Bft)
04.05.2015 15:00 17,3 C 15,4 C 75 % 1013,0 hPa 0,0 mm 0,0 km/h (0 Bft) W-SW 247 12,8 C 0,0 km/h (0 Bft)
04.05.2015 15:05 17,0 C 15,2 C 76 % 1013,0 hPa 0,0 mm 0,0 km/h (0 Bft) W-SW 247 12,7 C 0,0 km/h (0 Bft)
04.05.2015 15:10 16,8 C 15,1 C 77 % 1013,0 hPa 0,0 mm 0,0 km/h (0 Bft) W-SW 247 12,7 C 0,0 km/h (0 Bft)
04.05.2015 15:15 16,7 C 15,0 C 77 % 1013,0 hPa 0,0 mm 0,0 km/h (0 Bft) W-SW 247 12,6 C 0,0 km/h (0 Bft)
04.05.2015 15:16 16,7 C 11,1 C 78 % 1012,8 hPa 0,0 mm 0,0 km/h (0 Bft) W-SW 247 12,8 C 0,0 km/h (0 Bft)
04.05.2015 15:21 16,2 C 10,8 C 78 % 1012,8 hPa 0,7 mm 0,0 km/h (0 Bft) W-SW 247 12,4 C 0,0 km/h (0 Bft)
04.05.2015 15:26 15,7 C 10,5 C 78 % 1012,8 hPa 1,4 mm 0,0 km/h (0 Bft) W-SW 247 11,9 C 0,0 km/h (0 Bft)
04.05.2015 15:31 15,2 C 10,1 C 81 % 1012,8 hPa 1,4 mm 0,0 km/h (0 Bft) W-SW 247 12,0 C 0,0 km/h (0 Bft)
04.05.2015 15:34 15,1 C 10,1 C 81 % 1013,1 hPa 0,0 mm 0,0 km/h (0 Bft) SW 225 11,9 C 0,0 km/h (0 Bft)
04.05.2015 15:40 14,8 C 14,7 C 82 % 1013,1 hPa 2,7 mm 3,6 km/h (1 Bft) SO 135 11,8 C 3,4 km/h (1 Bft)
04.05.2015 15:45 14,8 C 14,7 C 84 % 1013,1 hPa 0,0 mm 2,3 km/h (1 Bft) SO 135 12,1 C 0,0 km/h (0 Bft)
04.05.2015 15:50 14,6 C 14,6 C 81 % 1013,1 hPa 0,7 mm 2,3 km/h (1 Bft) SO 135 11,4 C 0,0 km/h (0 Bft)
04.05.2015 15:55 14,6 C 14,6 C 82 % 1013,0 hPa 0,0 mm 1,8 km/h (1 Bft) S 180 11,6 C 3,6 km/h (1 Bft)
04.05.2015 16:00 14,6 C 14,7 C 82 % 1013,0 hPa 0,0 mm 2,3 km/h (1 Bft) S 180 11,6 C 3,1 km/h (1 Bft)
04.05.2015 16:05 14,7 C 15,0 C 82 % 1013,0 hPa 0,0 mm 1,6 km/h (1 Bft) S-SO 157 11,7 C 0,0 km/h (0 Bft)
04.05.2015 16:10 15,2 C 15,5 C 83 % 1013,0 hPa 0,0 mm 1,6 km/h (1 Bft) S-SO 157 12,3 C 0,0 km/h (0 Bft)
04.05.2015 16:15 15,4 C 15,8 C 83 % 1012,6 hPa 0,0 mm 1,6 km/h (1 Bft) S-SO 157 12,5 C 0,0 km/h (0 Bft)
04.05.2015 16:20 15,8 C 16,2 C 83 % 1012,6 hPa 0,0 mm 0,0 km/h (0 Bft) S-SO 157 12,9 C 0,0 km/h (0 Bft)
04.05.2015 16:25 16,0 C 16,4 C 82 % 1012,6 hPa 0,0 mm 0,0 km/h (0 Bft) S-SO 157 12,9 C 0,0 km/h (0 Bft)
04.05.2015 16:30 16,4 C 16,6 C 82 % 1012,6 hPa 0,0 mm 0,0 km/h (0 Bft) S-SO 157 13,3 C 0,0 km/h (0 Bft)
04.05.2015 16:35 16,7 C 16,7 C 82 % 1012,4 hPa 0,0 mm 0,0 km/h (0 Bft) S-SO 157 13,6 C 0,0 km/h (0 Bft)
04.05.2015 16:40 16,8 C 16,4 C 82 % 1012,4 hPa 0,0 mm 0,0 km/h (0 Bft) S-SO 157 13,7 C 0,0 km/h (0 Bft)
04.05.2015 16:45 16,9 C 16,6 C 81 % 1012,4 hPa 0,0 mm 0,0 km/h (0 Bft) S-SO 157 13,6 C 0,0 km/h (0 Bft)
04.05.2015 16:50 16,9 C 16,5 C 80 % 1012,4 hPa 0,0 mm 0,0 km/h (0 Bft) S-SO 157 13,4 C 0,0 km/h (0 Bft)
04.05.2015 16:55 16,9 C 16,4 C 80 % 1012,3 hPa 0,0 mm 0,0 km/h (0 Bft) S-SO 157 13,4 C 0,0 km/h (0 Bft)
04.05.2015 17:00 17,0 C 16,7 C 79 % 1012,3 hPa 0,0 mm 0,0 km/h (0 Bft) S-SO 157 13,3 C 0,0 km/h (0 Bft)
04.05.2015 17:05 17,2 C 16,8 C 80 % 1012,3 hPa 0,0 mm 0,0 km/h (0 Bft) S-SO 157 13,7 C 0,0 km/h (0 Bft)
04.05.2015 17:10 17,4 C 16,8 C 79 % 1012,3 hPa 0,0 mm 0,0 km/h (0 Bft) S-SO 157 13,7 C 0,0 km/h (0 Bft)
04.05.2015 17:15 17,4 C 16,7 C 79 % 1012,3 hPa 0,0 mm 0,0 km/h (0 Bft) S-SO 157 13,7 C 0,0 km/h (0 Bft)
04.05.2015 17:20 17,1 C 16,4 C 79 % 1012,3 hPa 0,0 mm 0,0 km/h (0 Bft) S-SO 157 13,4 C 0,0 km/h (0 Bft)
04.05.2015 17:25 17,1 C 16,4 C 79 % 1012,3 hPa 0,0 mm 0,0 km/h (0 Bft) S-SO 157 13,4 C 0,0 km/h (0 Bft)
04.05.2015 17:30 17,2 C 16,7 C 79 % 1012,3 hPa 0,0 mm 0,0 km/h (0 Bft) S-SO 157 13,5 C 0,0 km/h (0 Bft)
04.05.2015 17:35 17,3 C 16,7 C 79 % 1012,4 hPa 0,0 mm 0,0 km/h (0 Bft) S-SO 157 13,6 C 0,0 km/h (0 Bft)
04.05.2015 17:40 17,3 C 16,7 C 79 % 1012,4 hPa 0,0 mm 0,0 km/h (0 Bft) S-SO 157 13,6 C 0,0 km/h (0 Bft)
04.05.2015 17:45 17,3 C 16,7 C 79 % 1012,4 hPa 0,0 mm 0,0 km/h (0 Bft) S-SO 157 13,6 C 0,0 km/h (0 Bft)
04.05.2015 17:50 17,3 C 16,6 C 79 % 1012,4 hPa 0,0 mm 0,0 km/h (0 Bft) S-SO 157 13,6 C 0,0 km/h (0 Bft)
04.05.2015 17:55 17,2 C 16,6 C 79 % 1012,1 hPa 0,0 mm 0,0 km/h (0 Bft) S-SO 157 13,5 C 0,0 km/h (0 Bft)
04.05.2015 18:00 17,3 C 16,6 C 79 % 1012,1 hPa 0,0 mm 0,0 km/h (0 Bft) S-SO 157 13,6 C 0,0 km/h (0 Bft)
04.05.2015 18:05 17,5 C 16,8 C 79 % 1012,1 hPa 0,0 mm 0,0 km/h (0 Bft) S-SO 157 13,8 C 0,0 km/h (0 Bft)
04.05.2015 18:10 17,6 C 16,9 C 79 % 1012,1 hPa 0,0 mm 0,0 km/h (0 Bft) S-SO 157 13,9 C 0,0 km/h (0 Bft)
04.05.2015 18:15 17,6 C 16,9 C 79 % 1012,1 hPa 0,0 mm 0,0 km/h (0 Bft) S-SO 157 13,9 C 0,0 km/h (0 Bft)
04.05.2015 18:20 17,5 C 16,6 C 79 % 1012,1 hPa 0,0 mm 0,0 km/h (0 Bft) S-SO 157 13,8 C 0,0 km/h (0 Bft)
04.05.2015 18:25 17,4 C 16,6 C 79 % 1012,1 hPa 0,0 mm 0,0 km/h (0 Bft) S-SO 157 13,7 C 0,0 km/h (0 Bft)
04.05.2015 18:30 17,1 C 16,4 C 79 % 1012,1 hPa 0,0 mm 0,0 km/h (0 Bft) S-SO 157 13,4 C 0,0 km/h (0 Bft)
04.05.2015 18:35 16,8 C 16,2 C 80 % 1012,4 hPa 0,0 mm 0,0 km/h (0 Bft) S-SO 157 13,3 C 0,0 km/h (0 Bft)
04.05.2015 18:40 16,6 C 16,0 C 80 % 1012,4 hPa 0,0 mm 0,0 km/h (0 Bft) S-SO 157 13,1 C 0,0 km/h (0 Bft)
04.05.2015 18:45 16,4 C 15,9 C 80 % 1012,4 hPa 0,0 mm 0,0 km/h (0 Bft) S-SO 157 12,9 C 0,0 km/h (0 Bft)
04.05.2015 18:50 16,2 C 15,7 C 80 % 1012,4 hPa 0,0 mm 0,0 km/h (0 Bft) S-SO 157 12,7 C 0,0 km/h (0 Bft)
04.05.2015 18:55 16,0 C 15,6 C 81 % 1012,6 hPa 0,0 mm 0,0 km/h (0 Bft) S-SO 157 12,7 C 0,0 km/h (0 Bft)
04.05.2015 19:00 15,9 C 15,6 C 82 % 1012,6 hPa 0,0 mm 0,0 km/h (0 Bft) S-SO 157 12,8 C 0,0 km/h (0 Bft)
04.05.2015 19:05 15,8 C 15,5 C 82 % 1012,6 hPa 0,0 mm 0,0 km/h (0 Bft) S-SO 157 12,7 C 0,0 km/h (0 Bft)
04.05.2015 19:10 15,9 C 15,6 C 83 % 1012,6 hPa 0,0 mm 0,0 km/h (0 Bft) S-SO 157 13,0 C 0,0 km/h (0 Bft)
04.05.2015 19:15 15,9 C 15,6 C 83 % 1011,6 hPa 0,0 mm 0,0 km/h (0 Bft) S-SO 157 13,0 C 0,0 km/h (0 Bft)
04.05.2015 19:20 15,9 C 15,6 C 83 % 1011,6 hPa 0,0 mm 0,0 km/h (0 Bft) S-SO 157 13,0 C 0,0 km/h (0 Bft)
04.05.2015 19:25 15,9 C 15,6 C 83 % 1011,6 hPa 0,0 mm 0,0 km/h (0 Bft) S-SO 157 13,0 C 0,0 km/h (0 Bft)
04.05.2015 19:30 15,9 C 15,6 C 83 % 1011,6 hPa 0,0 mm 0,0 km/h (0 Bft) S-SO 157 13,0 C 0,0 km/h (0 Bft)
04.05.2015 19:35 15,8 C 15,5 C 83 % 1011,5 hPa 0,0 mm 0,0 km/h (0 Bft) S-SO 157 12,9 C 0,0 km/h (0 Bft)
04.05.2015 19:40 15,7 C 15,4 C 83 % 1011,5 hPa 0,0 mm 0,0 km/h (0 Bft) S-SO 157 12,8 C 0,0 km/h (0 Bft)
04.05.2015 19:45 15,7 C 15,4 C 84 % 1011,5 hPa 0,0 mm 0,0 km/h (0 Bft) S-SO 157 13,0 C 0,0 km/h (0 Bft)
04.05.2015 19:50 15,6 C 15,3 C 84 % 1011,5 hPa 0,0 mm 0,0 km/h (0 Bft) S-SO 157 12,9 C 0,0 km/h (0 Bft)
04.05.2015 19:55 15,4 C 15,2 C 84 % 1011,2 hPa 0,0 mm 0,0 km/h (0 Bft) S-SO 157 12,7 C 0,0 km/h (0 Bft)
04.05.2015 20:00 15,1 C 15,0 C 85 % 1011,2 hPa 0,0 mm 0,0 km/h (0 Bft) S-SO 157 12,6 C 0,0 km/h (0 Bft)
04.05.2015 20:05 14,9 C 14,8 C 85 % 1011,2 hPa 0,0 mm 0,0 km/h (0 Bft) S-SO 157 12,4 C 0,0 km/h (0 Bft)
04.05.2015 20:10 14,7 C 14,7 C 86 % 1011,2 hPa 0,0 mm 0,0 km/h (0 Bft) S-SO 157 12,4 C 0,0 km/h (0 Bft)
04.05.2015 20:15 14,6 C 14,7 C 86 % 1010,9 hPa 0,0 mm 0,0 km/h (0 Bft) S-SO 157 12,3 C 0,0 km/h (0 Bft)
04.05.2015 20:20 14,5 C 14,7 C 86 % 1010,9 hPa 0,0 mm 0,0 km/h (0 Bft) S-SO 157 12,2 C 0,0 km/h (0 Bft)
04.05.2015 20:25 14,5 C 14,7 C 86 % 1010,9 hPa 0,0 mm 0,0 km/h (0 Bft) S-SO 157 12,2 C 0,0 km/h (0 Bft)
04.05.2015 20:30 14,4 C 14,7 C 87 % 1010,9 hPa 0,0 mm 0,0 km/h (0 Bft) S-SO 157 12,3 C 0,0 km/h (0 Bft)
04.05.2015 20:35 14,3 C 14,7 C 87 % 1010,9 hPa 0,0 mm 0,0 km/h (0 Bft) S-SO 157 12,2 C 0,0 km/h (0 Bft)
04.05.2015 20:40 14,3 C 14,7 C 87 % 1010,9 hPa 0,0 mm 0,0 km/h (0 Bft) S-SO 157 12,2 C 0,0 km/h (0 Bft)
04.05.2015 20:45 14,3 C 14,7 C 88 % 1010,9 hPa 0,0 mm 0,0 km/h (0 Bft) S-SO 157 12,3 C 0,0 km/h (0 Bft)
04.05.2015 20:50 14,3 C 14,7 C 88 % 1010,9 hPa 0,0 mm 0,0 km/h (0 Bft) S-SO 157 12,3 C 0,0 km/h (0 Bft)
04.05.2015 20:55 14,2 C 14,7 C 88 % 1010,9 hPa 0,0 mm 0,0 km/h (0 Bft) S-SO 157 12,2 C 0,0 km/h (0 Bft)
04.05.2015 21:00 14,1 C 14,7 C 88 % 1010,9 hPa 0,0 mm 0,0 km/h (0 Bft) S-SO 157 12,1 C 0,0 km/h (0 Bft)
04.05.2015 21:05 14,1 C 14,7 C 88 % 1010,9 hPa 0,0 mm 0,0 km/h (0 Bft) S-SO 157 12,1 C 0,0 km/h (0 Bft)
04.05.2015 21:10 14,2 C 14,7 C 88 % 1010,9 hPa 0,0 mm 0,0 km/h (0 Bft) S-SO 157 12,2 C 0,0 km/h (0 Bft)
04.05.2015 21:15 14,3 C 14,7 C 88 % 1010,8 hPa 0,0 mm 0,0 km/h (0 Bft) S-SO 157 12,3 C 0,0 km/h (0 Bft)
04.05.2015 21:20 14,3 C 14,7 C 88 % 1010,8 hPa 0,0 mm 0,0 km/h (0 Bft) S-SO 157 12,3 C 0,0 km/h (0 Bft)
04.05.2015 21:25 14,3 C 14,7 C 88 % 1010,8 hPa 0,0 mm 0,0 km/h (0 Bft) S-SO 157 12,3 C 0,0 km/h (0 Bft)
04.05.2015 21:30 14,3 C 14,7 C 88 % 1010,8 hPa 0,0 mm 0,0 km/h (0 Bft) S-SO 157 12,3 C 0,0 km/h (0 Bft)
04.05.2015 21:35 14,3 C 14,7 C 88 % 1010,4 hPa 0,0 mm 0,0 km/h (0 Bft) S-SO 157 12,3 C 0,0 km/h (0 Bft)
04.05.2015 21:40 14,4 C 14,7 C 88 % 1010,4 hPa 0,0 mm 0,0 km/h (0 Bft) S-SO 157 12,4 C 0,0 km/h (0 Bft)
04.05.2015 21:45 14,4 C 14,7 C 88 % 1010,4 hPa 0,0 mm 0,0 km/h (0 Bft) S-SO 157 12,4 C 0,0 km/h (0 Bft)
04.05.2015 21:50 14,3 C 14,7 C 89 % 1010,4 hPa 0,0 mm 0,0 km/h (0 Bft) S-SO 157 12,5 C 0,0 km/h (0 Bft)
04.05.2015 21:55 14,1 C 14,7 C 88 % 1010,4 hPa 0,0 mm 0,0 km/h (0 Bft) S-SO 157 12,1 C 0,0 km/h (0 Bft)
04.05.2015 22:00 14,2 C 14,7 C 89 % 1010,4 hPa 0,0 mm 0,0 km/h (0 Bft) S-SO 157 12,4 C 0,0 km/h (0 Bft)
04.05.2015 22:05 14,1 C 14,7 C 89 % 1010,4 hPa 0,0 mm 0,0 km/h (0 Bft) S-SO 157 12,3 C 0,0 km/h (0 Bft)
04.05.2015 22:10 14,2 C 14,7 C 89 % 1010,4 hPa 0,0 mm 0,0 km/h (0 Bft) S-SO 157 12,4 C 0,0 km/h (0 Bft)
04.05.2015 22:15 14,2 C 14,7 C 89 % 1010,3 hPa 0,0 mm 0,0 km/h (0 Bft) S-SO 157 12,4 C 0,0 km/h (0 Bft)
04.05.2015 22:20 14,1 C 14,7 C 89 % 1010,3 hPa 0,0 mm 0,0 km/h (0 Bft) S-SO 157 12,3 C 0,0 km/h (0 Bft)
04.05.2015 22:25 14,0 C 14,7 C 89 % 1010,3 hPa 0,0 mm 0,0 km/h (0 Bft) S-SO 157 12,2 C 0,0 km/h (0 Bft)
04.05.2015 22:30 14,0 C 14,7 C 89 % 1010,3 hPa 0,0 mm 0,0 km/h (0 Bft) S-SO 157 12,2 C 0,0 km/h (0 Bft)
04.05.2015 22:35 14,0 C 14,7 C 88 % 1010,5 hPa 0,0 mm 0,0 km/h (0 Bft) S-SO 157 12,0 C 0,0 km/h (0 Bft)
04.05.2015 22:40 14,0 C 14,7 C 89 % 1010,5 hPa 0,0 mm 0,0 km/h (0 Bft) S-SO 157 12,2 C 0,0 km/h (0 Bft)
04.05.2015 22:45 14,0 C 14,7 C 89 % 1010,5 hPa 0,0 mm 0,0 km/h (0 Bft) S-SO 157 12,2 C 0,0 km/h (0 Bft)
04.05.2015 22:50 14,0 C 14,7 C 86 % 1010,5 hPa 0,0 mm 0,0 km/h (0 Bft) S-SO 157 11,7 C 0,0 km/h (0 Bft)
04.05.2015 22:55 14,1 C 14,7 C 86 % 1009,9 hPa 0,0 mm 0,0 km/h (0 Bft) S-SO 157 11,8 C 0,0 km/h (0 Bft)
04.05.2015 23:00 14,2 C 14,7 C 86 % 1009,9 hPa 0,0 mm 0,0 km/h (0 Bft) S-SO 157 11,9 C 0,0 km/h (0 Bft)
04.05.2015 23:05 14,1 C 14,7 C 88 % 1009,9 hPa 0,0 mm 0,0 km/h (0 Bft) S-SO 157 12,1 C 0,0 km/h (0 Bft)
04.05.2015 23:10 13,9 C 14,7 C 88 % 1009,9 hPa 0,0 mm 0,0 km/h (0 Bft) S-SO 157 11,9 C 0,0 km/h (0 Bft)
04.05.2015 23:15 13,8 C 14,7 C 88 % 1009,7 hPa 0,0 mm 0,0 km/h (0 Bft) S-SO 157 11,8 C 0,0 km/h (0 Bft)
04.05.2015 23:20 13,8 C 14,7 C 88 % 1009,7 hPa 0,0 mm 0,0 km/h (0 Bft) S-SO 157 11,8 C 0,0 km/h (0 Bft)
04.05.2015 23:25 13,8 C 14,7 C 88 % 1009,7 hPa 0,0 mm 0,0 km/h (0 Bft) S-SO 157 11,8 C 0,0 km/h (0 Bft)
04.05.2015 23:30 13,5 C 14,7 C 88 % 1009,7 hPa 0,0 mm 0,0 km/h (0 Bft) S-SO 157 11,6 C 0,0 km/h (0 Bft)
04.05.2015 23:35 13,5 C 14,7 C 87 % 1009,4 hPa 0,0 mm 0,0 km/h (0 Bft) S-SO 157 11,4 C 0,0 km/h (0 Bft)
04.05.2015 23:40 13,3 C 14,7 C 87 % 1009,4 hPa 0,0 mm 0,0 km/h (0 Bft) S-SO 157 11,2 C 0,0 km/h (0 Bft)
04.05.2015 23:45 13,3 C 14,7 C 87 % 1009,4 hPa 0,0 mm 0,0 km/h (0 Bft) S-SO 157 11,2 C 0,0 km/h (0 Bft)
04.05.2015 23:50 13,3 C 14,7 C 87 % 1009,4 hPa 0,0 mm 0,0 km/h (0 Bft) S-SO 157 11,2 C 0,0 km/h (0 Bft)
04.05.2015 23:55 13,3 C 14,7 C 87 % 1009,4 hPa 0,0 mm 0,0 km/h (0 Bft) S-SO 157 11,2 C 0,0 km/h (0 Bft)
_ Min-Zeit 06:16 15:34 12:51 23:55 - 23:55 - - 06:06 23:55
Minimum _ 11,6 C 10,1 C 66 % 1009,4 hPa - 0,0 km/h (0 Bft) - - 9,8 C 0,0 km/h (0 Bft)
_ Max-Zeit 12:36 12:31 08:01 11:11 15:40 05:16 - - 10:31 04:51
Maximum _ 20,0 C 18,3 C 90 % 1013,9 hPa 2,7 mm 8,3 km/h
W-SW (2 Bft)
- - 14,8 C 15,3 km/h
W (3 Bft)
Durchschnitt _ 15,0 C 14,5 C 82 % 1012,0 hPa #11,7 mm 0,9 km/h (0 Bft) W-SW - 11,9 C 1,4 km/h (1 Bft)